Time;durP1;ratioP1;P1;durP2;ratioP2;P2;SDS_P1;SDS_P2;PMS_P1;PMS_P2;Temp;Humidity;BMP_temperature;BMP_pressure;BME280_temperature;BME280_humidity;BME280_pressure;Samples;Min_cycle;Max_cycle;Signal;HPM_P1;HPM_P2
2020/12/11 00:03:01;;;;;;;42.27;25.70;;;;;;;4.99;64.06;100518.91;6114627;28;20265;-63
2020/12/11 00:06:23;;;;;;;40.00;25.27;;;;;;;4.69;65.24;100512.59;6113333;28;20232;-62
2020/12/11 00:09:43;;;;;;;46.67;25.30;;;;;;;4.71;65.05;100511.78;6110928;28;20231;-60
2020/12/11 00:13:04;;;;;;;48.43;27.50;;;;;;;4.75;64.96;100512.69;6104044;28;20247;-62
2020/12/11 00:16:25;;;;;;;41.87;24.50;;;;;;;4.72;64.77;100499.75;6110619;28;20319;-61
2020/12/11 00:19:46;;;;;;;48.00;27.90;;;;;;;4.98;64.23;100496.53;6096923;28;20228;-63
2020/12/11 00:23:07;;;;;;;44.67;26.57;;;;;;;4.69;65.41;100489.38;6103498;28;20243;-62
2020/12/11 00:26:28;;;;;;;50.80;28.67;;;;;;;4.73;65.19;100486.88;6110316;28;20224;-63
2020/12/11 00:29:49;;;;;;;46.77;28.37;;;;;;;4.79;65.02;100482.59;6105017;28;20239;-63
2020/12/11 00:33:10;;;;;;;52.00;29.83;;;;;;;4.85;64.77;100480.09;6115664;28;20235;-62
2020/12/11 00:36:30;;;;;;;45.20;24.80;;;;;;;4.56;65.50;100475.53;6113271;28;20318;-61
2020/12/11 00:39:51;;;;;;;54.40;29.83;;;;;;;4.68;65.25;100473.03;6106015;28;20243;-62
2020/12/11 00:43:11;;;;;;;49.60;26.43;;;;;;;4.84;64.93;100463.72;6106651;28;20247;-62
2020/12/11 00:46:32;;;;;;;53.43;29.23;;;;;;;4.89;64.24;100467.22;6107943;28;20226;-62
2020/12/11 00:49:53;;;;;;;54.23;30.70;;;;;;;4.82;64.95;100460.28;6102611;28;20261;-61
2020/12/11 00:53:14;;;;;;;60.00;31.70;;;;;;;4.85;64.50;100452.56;6108260;28;20235;-60
2020/12/11 00:56:36;;;;;;;53.60;29.37;;;;;;;4.93;64.68;100456.06;6107671;28;20244;-61
2020/12/11 00:59:57;;;;;;;52.87;29.83;;;;;;;4.86;64.48;100446.53;6098295;28;20236;-61
2020/12/11 01:03:17;;;;;;;52.03;29.87;;;;;;;4.92;64.58;100443.16;6109698;28;20308;-61
2020/12/11 01:06:38;;;;;;;54.60;29.40;;;;;;;4.98;64.61;100442.34;6107835;28;20673;-62
2020/12/11 01:09:59;;;;;;;54.07;30.77;;;;;;;5.21;63.74;100442.50;6106570;28;20231;-61
2020/12/11 01:13:19;;;;;;;51.57;31.33;;;;;;;5.02;64.15;100446.66;6107442;28;20235;-61
2020/12/11 01:16:40;;;;;;;59.57;31.57;;;;;;;4.99;64.19;100441.50;6109069;28;20240;-61
2020/12/11 01:20:00;;;;;;;56.73;30.90;;;;;;;5.04;63.51;100429.47;6108954;28;20804;-61
2020/12/11 01:23:21;;;;;;;51.93;31.23;;;;;;;4.84;64.54;100431.91;6104632;28;20516;-62
2020/12/11 01:26:45;;;;;;;72.07;33.30;;;;;;;4.63;65.70;100430.00;6108100;28;20618;-62
2020/12/11 01:30:05;;;;;;;54.73;32.30;;;;;;;4.74;64.77;100425.81;6105705;28;20618;-62
2020/12/11 01:33:26;;;;;;;61.07;32.60;;;;;;;4.86;64.72;100419.88;6106721;28;20239;-61
2020/12/11 01:36:46;;;;;;;60.33;32.73;;;;;;;4.89;64.55;100400.13;6106408;28;20233;-62
2020/12/11 01:40:07;;;;;;;51.60;30.83;;;;;;;4.86;64.26;100397.50;6098449;28;20254;-62
2020/12/11 01:43:28;;;;;;;56.30;33.63;;;;;;;4.81;65.16;100388.00;6110015;28;20279;-61
2020/12/11 01:46:49;;;;;;;55.03;30.67;;;;;;;4.42;65.86;100390.28;6096792;28;20239;-60
2020/12/11 01:50:18;;;;;;;55.20;30.63;;;;;;;4.59;65.42;100394.72;6118097;28;20235;-62
2020/12/11 01:53:42;;;;;;;48.50;30.67;;;;;;;4.81;65.04;100378.56;6107849;28;20306;-61
2020/12/11 01:57:05;;;;;;;59.90;29.90;;;;;;;4.67;65.05;100378.47;6099698;28;20629;-61
2020/12/11 02:00:26;;;;;;;56.43;30.27;;;;;;;4.81;64.75;100373.41;6115419;28;20227;-61
2020/12/11 02:03:47;;;;;;;52.20;27.97;;;;;;;4.68;65.35;100369.00;6101353;28;20646;-62
2020/12/11 02:07:07;;;;;;;46.37;29.27;;;;;;;4.73;64.58;100364.75;6094261;28;20236;-61
2020/12/11 02:10:28;;;;;;;51.30;29.60;;;;;;;4.45;65.81;100367.09;6109497;28;20259;-62
2020/12/11 02:13:49;;;;;;;51.67;28.90;;;;;;;4.53;65.21;100364.59;6100127;28;20239;-61
2020/12/11 02:17:10;;;;;;;47.60;27.47;;;;;;;4.65;65.11;100364.69;6092855;28;20244;-61
2020/12/11 02:20:31;;;;;;;42.83;27.53;;;;;;;4.60;64.77;100356.06;6107758;28;20251;-61
2020/12/11 02:23:52;;;;;;;38.37;23.83;;;;;;;4.54;64.64;100348.28;6103041;28;20309;-60
2020/12/11 02:27:13;;;;;;;44.50;24.33;;;;;;;4.72;64.40;100345.81;6094962;28;20350;-62
2020/12/11 02:30:33;;;;;;;38.67;23.17;;;;;;;4.68;64.23;100344.06;6112504;28;20319;-62
2020/12/11 02:33:53;;;;;;;38.73;22.80;;;;;;;4.44;65.39;100347.34;6103042;28;20239;-62
2020/12/11 02:37:14;;;;;;;37.93;21.67;;;;;;;4.34;65.51;100338.66;6108097;28;20605;-61
2020/12/11 02:40:39;;;;;;;39.17;25.50;;;;;;;4.33;65.47;100320.59;6113875;28;20693;-61
2020/12/11 02:44:00;;;;;;;36.53;23.00;;;;;;;4.43;65.24;100322.38;6114976;28;20235;-62
2020/12/11 02:47:21;;;;;;;35.20;22.37;;;;;;;4.48;65.65;100315.56;6092561;28;20235;-60
2020/12/11 02:50:42;;;;;;;35.33;22.13;;;;;;;4.67;64.37;100310.53;6105254;28;20228;-62
2020/12/11 02:54:02;;;;;;;34.57;21.37;;;;;;;4.51;65.16;100319.88;6100264;28;20794;-62
2020/12/11 02:57:24;;;;;;;36.17;22.97;;;;;;;4.75;64.18;100324.34;6090865;28;20634;-61
2020/12/11 03:00:44;;;;;;;35.60;21.50;;;;;;;4.60;64.68;100314.78;6102844;28;20228;-62
2020/12/11 03:04:05;;;;;;;36.30;23.30;;;;;;;4.66;64.55;100308.81;6109496;28;20744;-62
2020/12/11 03:07:26;;;;;;;43.93;25.03;;;;;;;4.57;64.56;100313.91;6096528;28;20601;-61
2020/12/11 03:10:47;;;;;;;32.53;20.73;;;;;;;4.48;65.34;100301.81;6107672;28;20258;-61
2020/12/11 03:14:09;;;;;;;37.00;21.70;;;;;;;4.24;66.14;100299.88;6103283;28;20243;-61
2020/12/11 03:17:29;;;;;;;35.50;22.93;;;;;;;4.48;65.04;100292.34;6098501;28;20239;-61
2020/12/11 03:20:50;;;;;;;35.90;24.33;;;;;;;4.37;65.48;100291.41;6111618;28;20243;-61
2020/12/11 03:24:10;;;;;;;34.57;21.20;;;;;;;4.16;66.01;100283.50;6106688;28;20236;-62
2020/12/11 03:27:31;;;;;;;32.67;22.43;;;;;;;4.57;65.15;100288.09;6095633;28;20228;-62
2020/12/11 03:30:52;;;;;;;32.80;20.87;;;;;;;4.46;65.49;100281.16;6107254;28;20655;-61
2020/12/11 03:34:13;;;;;;;36.03;23.97;;;;;;;4.47;65.43;100280.28;6107993;28;20236;-61
2020/12/11 03:37:34;;;;;;;28.47;19.23;;;;;;;4.43;65.28;100270.81;6092709;28;20232;-62
2020/12/11 03:40:54;;;;;;;30.40;19.13;;;;;;;4.46;65.41;100270.84;6129025;28;20235;-61
2020/12/11 03:44:15;;;;;;;35.37;22.80;;;;;;;4.45;65.24;100263.94;6114957;28;20252;-60
2020/12/11 03:47:37;;;;;;;31.97;21.00;;;;;;;4.25;66.01;100263.81;6103792;28;20231;-61
2020/12/11 03:50:57;;;;;;;37.13;21.70;;;;;;;4.26;65.77;100267.25;6121066;28;20282;-61
2020/12/11 03:54:18;;;;;;;29.17;20.03;;;;;;;4.50;65.72;100267.44;6115330;28;20228;-63
2020/12/11 03:57:38;;;;;;;30.53;20.60;;;;;;;4.50;65.57;100264.84;6103595;28;20557;-62
2020/12/11 04:00:59;;;;;;;35.53;20.87;;;;;;;4.52;65.65;100249.41;6117581;28;20232;-62
2020/12/11 04:04:20;;;;;;;32.17;20.57;;;;;;;4.31;66.13;100250.97;6113626;28;20728;-60
2020/12/11 04:07:40;;;;;;;29.63;18.60;;;;;;;4.17;65.85;100250.00;6106177;28;20334;-62
2020/12/11 04:11:04;;;;;;;29.47;19.33;;;;;;;4.08;66.55;100252.50;6113271;28;20247;-62
2020/12/11 04:14:24;;;;;;;36.07;23.50;;;;;;;4.18;66.65;100244.00;6109337;28;20522;-61
2020/12/11 04:17:45;;;;;;;32.73;21.00;;;;;;;4.16;66.28;100250.00;6104261;28;20263;-61
2020/12/11 04:21:10;;;;;;;32.27;22.57;;;;;;;4.19;66.49;100239.69;6113302;28;20244;-61
2020/12/11 04:24:30;;;;;;;29.57;18.47;;;;;;;4.30;65.51;100238.06;6109885;28;20233;-61
2020/12/11 04:27:51;;;;;;;34.67;20.40;;;;;;;4.26;65.72;100231.16;6106172;28;20251;-62
2020/12/11 04:31:11;;;;;;;30.07;20.97;;;;;;;4.40;65.33;100229.56;6092624;28;20310;-62
2020/12/11 04:34:32;;;;;;;32.03;20.87;;;;;;;4.30;65.93;100226.06;6107046;28;20326;-61
2020/12/11 04:37:53;;;;;;;29.33;21.30;;;;;;;4.36;65.83;100222.63;6111454;28;20254;-62
2020/12/11 04:41:14;;;;;;;31.80;20.33;;;;;;;4.35;65.54;100226.06;6117679;28;20227;-61
2020/12/11 04:44:35;;;;;;;29.47;20.43;;;;;;;4.18;66.36;100219.94;6105678;28;20248;-62
2020/12/11 04:47:55;;;;;;;31.87;21.17;;;;;;;4.44;65.78;100220.09;6105717;28;20227;-62
2020/12/11 04:51:17;;;;;;;32.83;19.37;;;;;;;4.34;65.26;100225.22;6115560;28;20267;-61
2020/12/11 04:54:39;;;;;;;31.27;20.50;;;;;;;4.61;64.89;100217.63;6106752;28;20235;-62
2020/12/11 04:58:04;;;;;;;32.13;20.93;;;;;;;4.46;64.78;100214.13;6105691;28;20224;-63
2020/12/11 05:01:29;;;;;;;32.93;21.90;;;;;;;4.27;65.32;100225.16;6101627;28;20224;-61
2020/12/11 05:04:52;;;;;;;32.70;20.40;;;;;;;4.52;65.31;100221.88;6106453;28;20240;-60
2020/12/11 05:08:17;;;;;;;33.87;21.57;;;;;;;4.37;64.99;100216.63;6114618;28;20243;-63
2020/12/11 05:11:39;;;;;;;29.40;19.93;;;;;;;4.35;65.78;100208.03;6111440;28;20276;-62
2020/12/11 05:15:02;;;;;;;30.60;22.43;;;;;;;4.37;65.15;100202.88;6110463;28;20235;-62
2020/12/11 05:18:24;;;;;;;27.73;19.23;;;;;;;4.62;64.41;100193.59;6106616;28;20227;-60
2020/12/11 05:21:45;;;;;;;31.40;20.33;;;;;;;4.26;65.16;100192.50;6111519;28;20634;-61
2020/12/11 05:25:13;;;;;;;26.43;18.40;;;;;;;4.56;64.92;100183.25;6111687;28;20240;-61
2020/12/11 05:28:44;;;;;;;29.37;20.80;;;;;;;4.47;65.30;100187.47;6112770;28;20332;-61
2020/12/11 05:32:04;;;;;;;34.63;22.23;;;;;;;4.26;65.76;100187.34;6102739;28;20616;-61
2020/12/11 05:35:33;;;;;;;31.07;21.77;;;;;;;4.40;65.21;100188.31;6123155;28;20252;-62
2020/12/11 05:38:54;;;;;;;29.47;18.40;;;;;;;4.50;65.41;100184.91;6102543;28;20235;-62
2020/12/11 05:42:15;;;;;;;32.07;21.00;;;;;;;4.26;65.60;100192.50;6104509;28;20287;-61
2020/12/11 05:45:37;;;;;;;34.50;23.53;;;;;;;4.00;66.75;100182.00;6116261;28;20235;-62
2020/12/11 05:48:59;;;;;;;33.93;22.37;;;;;;;4.34;65.40;100173.66;6115637;28;20231;-62
2020/12/11 05:52:22;;;;;;;30.60;21.30;;;;;;;4.35;65.39;100169.34;6104152;28;20232;-60
2020/12/11 05:55:42;;;;;;;32.90;19.77;;;;;;;4.28;65.62;100170.16;6119724;28;20232;-63
2020/12/11 05:59:04;;;;;;;34.67;23.97;;;;;;;4.19;66.56;100167.53;6113959;28;20227;-61
2020/12/11 06:02:26;;;;;;;35.75;25.23;;;;;;;4.27;65.68;100174.47;6100927;28;20863;-62
2020/12/11 06:05:48;;;;;;;30.53;20.00;;;;;;;4.31;65.70;100167.63;6117750;28;20235;-61
2020/12/11 06:09:12;;;;;;;33.43;22.60;;;;;;;4.12;66.42;100177.78;6114906;28;20227;-62
2020/12/11 06:12:33;;;;;;;36.10;23.57;;;;;;;4.04;66.91;100169.16;6106617;28;20574;-61
2020/12/11 06:15:56;;;;;;;31.47;20.73;;;;;;;4.13;66.14;100169.22;6118449;28;20602;-61
2020/12/11 06:19:18;;;;;;;41.20;25.33;;;;;;;4.28;65.59;100183.91;6115992;28;20323;-62
2020/12/11 06:22:44;;;;;;;35.57;23.17;;;;;;;4.30;66.09;100181.34;6101220;28;20400;-62
2020/12/11 06:26:04;;;;;;;40.97;23.53;;;;;;;4.05;66.08;100165.75;6112672;28;20231;-61
2020/12/11 06:29:29;;;;;;;39.23;25.97;;;;;;;4.26;66.16;100169.28;6110197;28;20799;-62
2020/12/11 06:32:50;;;;;;;39.20;25.20;;;;;;;4.31;65.80;100183.09;6100844;28;20315;-61
2020/12/11 06:36:12;;;;;;;39.93;24.97;;;;;;;4.06;66.53;100171.75;6113473;28;20693;-61
2020/12/11 06:39:40;;;;;;;41.17;26.33;;;;;;;4.20;66.08;100166.69;6102414;28;20231;-55
2020/12/11 06:43:01;;;;;;;45.20;26.87;;;;;;;4.04;66.88;100176.03;6102569;28;20235;-56
2020/12/11 06:46:23;;;;;;;40.80;24.17;;;;;;;4.21;66.73;100165.84;6112487;28;20224;-59
2020/12/11 06:50:06;;;;;;;46.97;26.77;;;;;;;3.92;67.49;100164.78;6120043;28;20247;-60
2020/12/11 06:53:40;;;;;;;43.17;24.23;;;;;;;4.07;66.96;100166.63;6107888;28;20311;-56
2020/12/11 06:57:02;;;;;;;48.80;27.60;;;;;;;4.21;66.80;100173.56;6105632;28;20593;-60
2020/12/11 07:00:36;;;;;;;51.05;26.48;;;;;;;4.02;67.58;100165.69;6123098;28;20096;-60
2020/12/11 07:03:56;;;;;;;46.40;27.23;;;;;;;4.04;66.35;100163.16;6111351;28;20825;-60
2020/12/11 07:07:18;;;;;;;48.80;27.20;;;;;;;4.02;66.62;100159.69;6106636;28;21769;-59
2020/12/11 07:10:40;;;;;;;52.50;28.37;;;;;;;4.10;67.22;100165.75;6114905;28;20700;-61
2020/12/11 07:14:01;;;;;;;45.07;29.03;;;;;;;4.09;66.91;100153.72;6118172;28;20247;-60
2020/12/11 07:17:24;;;;;;;49.87;25.00;;;;;;;3.83;67.35;100154.38;6107520;28;20231;-58
2020/12/11 07:20:49;;;;;;;51.90;28.73;;;;;;;3.97;66.89;100144.19;6121459;28;20236;-62
2020/12/11 07:24:10;;;;;;;55.10;29.30;;;;;;;4.04;67.09;100143.38;6117941;28;20326;-62
2020/12/11 07:27:31;;;;;;;50.57;29.03;;;;;;;4.26;66.65;100138.38;6107013;28;20358;-62
2020/12/11 07:30:52;;;;;;;50.13;27.40;;;;;;;4.38;65.84;100138.44;6116425;28;20232;-62
2020/12/11 07:34:14;;;;;;;55.33;30.70;;;;;;;4.22;66.39;100127.16;6112451;28;20239;-60
2020/12/11 07:37:35;;;;;;;52.87;28.83;;;;;;;4.50;65.76;100117.03;6105315;28;20247;-56
2020/12/11 07:40:56;;;;;;;51.00;29.67;;;;;;;4.61;65.21;100124.78;6119296;28;20239;-60
2020/12/11 07:44:23;;;;;;;53.17;27.53;;;;;;;4.78;64.88;100117.13;6107370;28;20244;-61
2020/12/11 07:47:44;;;;;;;53.03;30.33;;;;;;;4.38;65.46;100116.94;6120943;28;20250;-59
2020/12/11 07:51:05;;;;;;;48.20;28.33;;;;;;;4.38;65.93;100111.78;6117020;28;20713;-60
2020/12/11 07:54:34;;;;;;;54.27;29.23;;;;;;;4.41;65.37;100111.81;6094477;28;20236;-55
2020/12/11 07:57:55;;;;;;;59.47;30.07;;;;;;;4.50;65.83;100102.41;6111293;28;20250;-59
2020/12/11 08:01:16;;;;;;;51.97;31.47;;;;;;;4.54;66.10;100098.97;6114290;28;20586;-55
2020/12/11 08:04:37;;;;;;;58.50;32.63;;;;;;;4.64;64.99;100099.03;6110247;28;20672;-61
2020/12/11 08:07:59;;;;;;;59.10;31.53;;;;;;;4.59;65.28;100100.72;6106522;28;20231;-52
2020/12/11 08:11:24;;;;;;;53.53;32.63;;;;;;;4.35;65.78;100104.91;6115060;28;20236;-61
2020/12/11 08:14:45;;;;;;;59.80;30.93;;;;;;;4.23;66.40;100099.69;6105589;28;20251;-58
2020/12/11 08:18:11;;;;;;;59.43;32.83;;;;;;;4.23;66.46;100095.41;6106552;28;20244;-56
2020/12/11 08:21:33;;;;;;;64.00;33.07;;;;;;;4.36;66.73;100096.31;6113744;28;20227;-56
2020/12/11 08:24:53;;;;;;;58.13;31.47;;;;;;;4.38;66.69;100091.16;6107818;28;20239;-60
2020/12/11 08:28:17;;;;;;;61.77;34.23;;;;;;;4.16;66.87;100092.78;6104905;28;20331;-56
2020/12/11 08:31:39;;;;;;;60.30;31.93;;;;;;;3.91;67.94;100084.91;6107883;28;20235;-56
2020/12/11 08:35:00;;;;;;;63.83;34.17;;;;;;;4.05;67.21;100085.88;6100298;28;20771;-61
2020/12/11 08:38:21;;;;;;;52.50;29.67;;;;;;;4.28;66.77;100078.22;6102303;28;20235;-59
2020/12/11 08:41:51;;;;;;;58.30;33.17;;;;;;;4.51;66.47;100068.00;6106102;28;20629;-59
2020/12/11 08:45:27;;;;;;;58.03;34.17;;;;;;;4.56;65.49;100075.78;6103776;28;20259;-57
2020/12/11 08:49:01;;;;;;;59.63;29.77;;;;;;;4.57;65.74;100056.00;6107965;28;20959;-56
2020/12/11 08:52:23;;;;;;;59.00;32.30;;;;;;;4.59;65.71;100047.41;6086857;28;20646;-55
2020/12/11 08:55:43;;;;;;;51.80;30.03;;;;;;;4.38;66.04;100045.66;6109514;28;20705;-55
2020/12/11 08:59:04;;;;;;;53.90;30.73;;;;;;;4.39;66.71;100044.78;6108201;28;20252;-60
2020/12/11 09:02:26;;;;;;;62.57;30.60;;;;;;;4.29;66.75;100050.75;6095336;28;20234;-62
2020/12/11 09:05:46;;;;;;;55.57;29.70;;;;;;;4.33;66.87;100044.75;6115139;28;20614;-64
2020/12/11 09:09:07;;;;;;;52.23;29.93;;;;;;;4.45;66.38;100055.09;6107376;28;20250;-62
2020/12/11 09:12:27;;;;;;;56.07;31.23;;;;;;;4.35;66.25;100048.19;6099428;28;20555;-64
2020/12/11 09:15:48;;;;;;;50.03;29.90;;;;;;;4.20;66.78;100053.28;6110713;28;20232;-64
2020/12/11 09:19:09;;;;;;;59.60;31.10;;;;;;;4.03;67.24;100051.50;6106808;28;20231;-54
2020/12/11 09:22:29;;;;;;;62.50;32.87;;;;;;;4.38;66.86;100045.66;6097468;28;20240;-62
2020/12/11 09:25:51;;;;;;;62.57;31.43;;;;;;;4.25;67.05;100034.41;6109588;28;20314;-62
2020/12/11 09:29:14;;;;;;;63.63;34.87;;;;;;;4.28;66.19;100030.97;6101639;28;20224;-62
2020/12/11 09:32:42;;;;;;;59.37;31.93;;;;;;;4.45;66.61;100020.72;6093530;28;20243;-63
2020/12/11 09:36:04;;;;;;;57.53;30.53;;;;;;;4.44;66.19;100019.88;6087794;28;606309;-58
2020/12/11 09:39:24;;;;;;;60.13;30.97;;;;;;;4.44;65.96;100014.72;6107232;28;20231;-59
2020/12/11 09:43:19;;;;;;;58.30;30.70;;;;;;;4.16;67.09;100012.88;6098200;28;20227;-61
2020/12/11 09:46:44;;;;;;;67.13;34.67;;;;;;;4.16;66.74;100018.91;6106670;28;20330;-58
2020/12/11 09:50:15;;;;;;;58.77;31.57;;;;;;;3.98;68.11;100019.69;6098540;28;20315;-61
2020/12/11 09:57:29;;;;;;;56.37;32.73;;;;;;;3.99;67.43;100016.22;6024104;29;20293;-62
2020/12/11 10:00:52;;;;;;;60.87;33.43;;;;;;;4.18;67.62;100011.19;6046126;29;20231;-66
2020/12/11 10:04:12;;;;;;;55.73;30.80;;;;;;;4.00;68.08;100007.66;6114155;28;20590;-62
2020/12/11 10:07:33;;;;;;;56.57;31.93;;;;;;;4.25;66.98;100007.78;6100901;28;20365;-63
2020/12/11 10:10:54;;;;;;;54.10;31.73;;;;;;;4.35;66.41;100014.69;6110278;28;20584;-60
2020/12/11 10:14:22;;;;;;;57.67;30.80;;;;;;;4.06;67.34;100018.00;6098529;28;20244;-62
2020/12/11 10:17:44;;;;;;;61.60;29.37;;;;;;;3.97;67.70;100017.94;6096921;28;20345;-63
2020/12/11 10:21:04;;;;;;;52.60;29.73;;;;;;;4.05;66.88;100018.88;6111925;28;20239;-62
2020/12/11 10:24:25;;;;;;;54.67;31.67;;;;;;;4.34;66.78;100012.94;6105030;28;20236;-62
2020/12/11 10:27:45;;;;;;;54.93;30.67;;;;;;;4.19;66.72;100005.16;6101946;28;20235;-58
2020/12/11 10:31:06;;;;;;;53.93;31.83;;;;;;;4.05;67.77;99995.69;6117204;28;20505;-62
2020/12/11 10:34:27;;;;;;;53.13;30.77;;;;;;;4.28;67.32;99982.00;6105810;28;20224;-62
2020/12/11 10:37:48;;;;;;;50.20;30.47;;;;;;;4.39;66.53;99982.91;6099256;28;20329;-59
2020/12/11 10:41:09;;;;;;;52.87;30.10;;;;;;;4.23;66.49;99983.72;6112111;28;20235;-63
2020/12/11 10:44:29;;;;;;;59.73;30.33;;;;;;;4.29;67.02;99952.81;6113116;28;20227;-55
2020/12/11 10:47:50;;;;;;;59.03;31.80;;;;;;;4.36;66.38;99969.97;6102490;28;20239;-61
2020/12/11 10:51:12;;;;;;;60.33;30.83;;;;;;;4.37;65.86;99971.72;6112761;28;20245;-61
2020/12/11 10:54:33;;;;;;;54.13;30.53;;;;;;;4.57;65.49;99968.31;6103478;28;20314;-64
2020/12/11 10:57:54;;;;;;;53.27;28.57;;;;;;;4.45;66.33;99969.16;6099012;28;20509;-60
2020/12/11 11:01:15;;;;;;;63.23;36.73;;;;;;;4.47;65.49;99954.56;6108537;28;20271;-64
2020/12/11 11:04:35;;;;;;;55.63;30.87;;;;;;;4.49;66.07;99953.69;6107382;28;20231;-63
2020/12/11 11:07:56;;;;;;;54.17;29.33;;;;;;;4.36;65.88;99949.34;6106596;28;20263;-61
2020/12/11 11:11:20;;;;;;;55.60;30.03;;;;;;;4.15;66.96;99942.47;6110619;28;20286;-60
2020/12/11 11:18:35;;;;;;;57.27;30.63;;;;;;;4.44;66.53;99942.53;6105880;28;20601;-61
2020/12/11 11:22:15;;;;;;;51.33;31.43;;;;;;;4.62;65.73;99935.69;6097512;28;20231;-59
2020/12/11 11:26:02;;;;;;;52.67;28.80;;;;;;;4.16;66.42;99936.44;6104256;28;20232;-59
2020/12/11 11:29:23;;;;;;;56.83;33.07;;;;;;;4.37;66.29;99937.34;6106899;28;20232;-58
2020/12/11 11:32:43;;;;;;;56.20;31.63;;;;;;;4.44;65.56;99937.38;6105194;28;20584;-59
2020/12/11 11:36:03;;;;;;;58.57;30.73;;;;;;;4.32;66.08;99919.28;6115190;28;20240;-60
2020/12/11 11:39:24;;;;;;;60.60;34.60;;;;;;;4.52;65.18;99915.03;6106120;28;20240;-61
2020/12/11 11:42:45;;;;;;;56.27;29.30;;;;;;;4.58;65.68;99910.75;6107778;28;20318;-58
2020/12/11 11:46:05;;;;;;;57.13;30.67;;;;;;;4.84;64.74;99901.28;6115709;28;20554;-62
2020/12/11 11:49:30;;;;;;;59.07;31.23;;;;;;;4.59;65.33;99909.88;6115909;28;20231;-61
2020/12/11 11:52:57;;;;;;;55.13;32.00;;;;;;;4.48;65.80;99899.56;6107598;28;20234;-62
2020/12/11 11:56:19;;;;;;;54.83;28.60;;;;;;;4.64;65.84;99909.03;6113916;28;20264;-58
2020/12/11 11:59:41;;;;;;;50.27;29.83;;;;;;;4.33;66.85;99900.41;6109189;28;20236;-62
2020/12/11 12:03:01;;;;;;;63.13;34.03;;;;;;;4.29;66.70;99898.69;6115311;28;20235;-61
2020/12/11 12:06:22;;;;;;;52.73;28.73;;;;;;;4.64;65.92;99888.38;6117292;28;20235;-59
2020/12/11 12:09:42;;;;;;;56.43;30.20;;;;;;;4.52;65.45;99880.66;6130470;28;20270;-60
2020/12/11 12:13:03;;;;;;;57.63;31.00;;;;;;;4.86;65.11;99884.06;6108975;28;20322;-61
2020/12/11 12:16:24;;;;;;;54.07;30.83;;;;;;;4.69;65.45;99885.78;6113661;28;20228;-62
2020/12/11 12:19:48;;;;;;;66.97;36.77;;;;;;;4.76;65.05;99882.38;6120853;28;20244;-61
2020/12/11 12:30:25;;;;;;;60.10;32.43;;;;;;;4.83;64.77;99878.09;6110245;28;20236;-58
2020/12/11 12:37:36;;;;;;;61.13;31.63;;;;;;;4.58;65.69;99864.34;6110291;28;20243;-56
2020/12/11 12:44:35;;;;;;;57.23;32.43;;;;;;;4.67;65.80;99861.72;6108932;28;21041;-53
2020/12/11 12:47:56;;;;;;;63.20;33.20;;;;;;;4.61;65.81;99857.44;6108153;28;20613;-55
2020/12/11 12:51:18;;;;;;;62.30;33.60;;;;;;;4.74;64.99;99854.00;6111337;28;20626;-57
2020/12/11 12:54:38;;;;;;;50.57;29.63;;;;;;;4.62;65.60;99851.44;6111638;28;20366;-58
2020/12/11 12:58:00;;;;;;;60.17;32.53;;;;;;;4.70;65.16;99856.59;6119214;28;20243;-58
2020/12/11 13:01:32;;;;;;;64.30;32.00;;;;;;;4.84;65.47;99854.84;6110227;28;20263;-50
2020/12/11 13:04:58;;;;;;;61.97;32.10;;;;;;;4.74;65.35;99847.97;6112077;28;20306;-60
2020/12/11 13:08:19;;;;;;;57.60;33.47;;;;;;;4.92;64.99;99841.94;6112022;28;20266;-58
2020/12/11 13:11:40;;;;;;;60.50;34.63;;;;;;;5.01;64.34;99841.06;6108887;28;20235;-54
2020/12/11 13:15:00;;;;;;;63.77;32.20;;;;;;;4.64;65.37;99835.97;6110928;28;20244;-57
2020/12/11 13:18:21;;;;;;;55.67;29.70;;;;;;;4.93;65.37;99830.75;6110475;28;20243;-59
2020/12/11 13:21:50;;;;;;;60.37;32.23;;;;;;;4.52;65.76;99837.69;6118404;28;20606;-56
2020/12/11 13:25:29;;;;;;;58.27;30.90;;;;;;;4.66;65.61;99839.41;6113567;28;20227;-55
2020/12/11 13:28:50;;;;;;;54.33;28.60;;;;;;;4.83;65.84;99836.81;6108471;28;20239;-57
2020/12/11 13:32:10;;;;;;;59.13;29.53;;;;;;;6.02;74.69;99827.75;6109883;28;20224;-56
2020/12/11 13:35:31;;;;;;;64.67;33.80;;;;;;;6.30;66.19;99827.56;6123404;28;20228;-57
2020/12/11 13:38:51;;;;;;;56.43;31.20;;;;;;;5.35;65.22;99820.31;6111289;28;20330;-54
2020/12/11 13:42:13;;;;;;;61.47;33.97;;;;;;;5.07;65.22;99820.41;6101824;28;20236;-56
2020/12/11 13:45:33;;;;;;;53.73;31.63;;;;;;;5.07;65.17;99815.25;6113653;28;20292;-56
2020/12/11 13:48:54;;;;;;;58.13;30.80;;;;;;;4.91;64.63;99812.69;6126665;28;20235;-57
2020/12/11 13:52:14;;;;;;;54.70;28.57;;;;;;;4.83;65.47;99809.28;6113347;28;20244;-57
2020/12/11 13:55:35;;;;;;;50.77;29.27;;;;;;;5.06;64.88;99813.50;6108698;28;20615;-54
2020/12/11 13:58:56;;;;;;;64.33;33.53;;;;;;;4.72;65.63;99808.44;6103593;29;20256;-56
2020/12/11 14:02:16;;;;;;;60.93;33.33;;;;;;;4.63;65.86;99811.88;6110674;28;20990;-57
2020/12/11 14:05:37;;;;;;;53.87;31.77;;;;;;;4.82;65.16;99810.13;6112641;28;20228;-56
2020/12/11 14:09:00;;;;;;;55.23;32.67;;;;;;;4.62;65.40;99822.22;6117736;28;20227;-58
2020/12/11 14:12:21;;;;;;;59.00;33.77;;;;;;;4.95;65.13;99810.97;6114622;28;20633;-54
2020/12/11 14:15:42;;;;;;;49.73;29.57;;;;;;;4.79;65.33;99809.25;6121940;28;20525;-50
2020/12/11 14:19:18;;;;;;;54.37;31.40;;;;;;;4.73;65.39;99815.31;6127332;28;20643;-54
2020/12/11 14:22:48;;;;;;;53.77;33.60;;;;;;;4.59;66.11;99806.72;6105583;28;20235;-55
2020/12/11 14:26:08;;;;;;;49.00;29.50;;;;;;;4.74;65.50;99810.13;6113343;28;20235;-55
2020/12/11 14:29:29;;;;;;;53.70;31.43;;;;;;;4.97;64.32;99808.41;6125597;28;20271;-55
2020/12/11 14:32:51;;;;;;;50.23;30.03;;;;;;;4.91;64.83;99810.13;6103278;28;20232;-52
2020/12/11 14:36:11;;;;;;;50.37;27.30;;;;;;;5.10;64.17;99800.63;6103667;29;20232;-56
2020/12/11 14:39:32;;;;;;;48.60;29.83;;;;;;;4.96;64.86;99806.66;6106673;28;20244;-55
2020/12/11 14:42:54;;;;;;;53.87;29.20;;;;;;;5.02;64.38;99802.38;6117444;28;20600;-55
2020/12/11 14:46:18;;;;;;;46.17;28.70;;;;;;;5.08;63.82;99801.50;6125578;28;20259;-56
2020/12/11 14:49:39;;;;;;;50.30;27.63;;;;;;;5.22;64.23;99799.72;6123799;28;20263;-56
2020/12/11 14:53:00;;;;;;;51.47;30.33;;;;;;;5.05;63.89;99806.66;6118275;28;20273;-55
2020/12/11 14:56:20;;;;;;;52.87;30.27;;;;;;;4.81;64.79;99800.69;6124722;28;20685;-56
2020/12/11 14:59:41;;;;;;;51.10;32.87;;;;;;;4.68;65.16;99793.81;6114788;28;20232;-59
2020/12/11 15:03:01;;;;;;;52.67;30.83;;;;;;;4.29;66.51;99790.41;6118568;28;20235;-59
2020/12/11 15:06:24;;;;;;;51.47;31.53;;;;;;;4.60;66.04;99792.97;6121446;28;20407;-61
2020/12/11 15:09:44;;;;;;;55.53;29.63;;;;;;;4.31;66.30;99794.69;6103479;28;20232;-56
2020/12/11 15:13:05;;;;;;;49.70;30.40;;;;;;;4.64;65.75;99786.97;6121894;28;20231;-56
2020/12/11 15:16:25;;;;;;;52.63;30.47;;;;;;;4.82;64.58;99779.16;6122823;28;20658;-60
2020/12/11 15:19:45;;;;;;;53.73;31.93;;;;;;;4.78;64.81;99777.47;6130412;28;20586;-57
2020/12/11 15:23:06;;;;;;;48.47;27.83;;;;;;;4.79;64.60;99778.31;6111049;28;20228;-56
2020/12/11 15:26:27;;;;;;;45.53;29.40;;;;;;;4.70;65.42;99768.88;6124053;28;20240;-56
2020/12/11 15:29:48;;;;;;;43.07;28.43;;;;;;;4.62;64.84;99761.16;6131115;28;20236;-58
2020/12/11 15:33:08;;;;;;;42.83;26.23;;;;;;;4.53;65.71;99753.44;6109699;28;20236;-54
2020/12/11 15:36:29;;;;;;;42.97;27.47;;;;;;;4.69;65.54;99752.56;6113651;28;20240;-52
2020/12/11 15:39:50;;;;;;;47.47;29.23;;;;;;;4.71;65.47;99755.13;6121369;28;20292;-56
2020/12/11 15:43:11;;;;;;;47.00;26.67;;;;;;;4.97;64.43;99746.47;6122996;28;20326;-52
2020/12/11 15:46:31;;;;;;;40.60;26.03;;;;;;;4.92;64.44;99739.59;6120667;28;20232;-53
2020/12/11 15:49:53;;;;;;;43.30;26.77;;;;;;;5.06;63.89;99744.72;6123768;28;20239;-57
2020/12/11 15:53:13;;;;;;;43.50;26.70;;;;;;;4.74;64.51;99744.81;6100089;29;20608;-53
2020/12/11 15:56:34;;;;;;;51.33;28.37;;;;;;;4.73;64.85;99748.25;6106846;28;20239;-57